Christina O — C6FN7 — position and weather

sailwx.info

Track history (hours):
 
Tides and Currents Weather Stations Pressure Air Temp Water Temp Dewpoint Dewpoint Depression Visibility Wind Speed Wind Dir Waves Ship Positions

Christina O

Operator: V Ships Leisure SAM

Last reported at 2020-Mar-26 11:00 UTC. Time now 2020-Apr-02 21:50 UTC.
Position S 31°58' E 115°40'.

Length 186 m; draft 6.1 m.

Type: Passenger vessel. MMSI: 308322000.

Date/timePositionNaut miles runAvg speedWind from/ knotsBaromVisibWave heightAir tempDewpointWater temp
2020-Mar-26 11:00S 31°58' E 115°40'6 6.2
2020-Mar-26 09:59S 32°03' E 115°45'0 0.0
2020-Mar-26 09:29S 32°03' E 115°45'0 0.0
2020-Mar-26 07:59S 32°03' E 115°45'0 0.0
2020-Mar-26 07:29S 32°03' E 115°45'0 0.0
2020-Mar-26 06:59S 32°03' E 115°45'0 0.0
2020-Mar-26 06:29S 32°03' E 115°45'0 0.0
2020-Mar-26 05:59S 32°03' E 115°45'0 0.0
2020-Mar-26 05:29S 32°03' E 115°45'0 0.0
2020-Mar-26 04:29S 32°03' E 115°45'0 0.0
2020-Mar-26 03:29S 32°03' E 115°45'3 0.7
2020-Mar-25 23:00S 32°01' E 115°42'21 8.5
2020-Mar-25 20:30S 32°11' E 115°19'6613.2
2020-Mar-25 15:30S 33°13' E 114°54'2813.9
2020-Mar-25 13:30S 33°40' E 114°44'815.0
2020-Mar-25 13:00S 33°48' E 114°43'  
2020-Mar-20 09:00S 34°03' E 151°24'817.0
2020-Mar-20 08:30S 33°55' E 151°22'9 0.7
2020-Mar-19 19:59S 33°52' E 151°11'0 0.0
2020-Mar-19 19:25S 33°52' E 151°11'0 0.0
2020-Mar-19 18:29S 33°52' E 151°11'0 0.0
2020-Mar-19 16:29S 33°52' E 151°11'0 0.0
2020-Mar-19 14:29S 33°52' E 151°11'0 0.0
2020-Mar-19 13:59S 33°52' E 151°11'0 0.0
2020-Mar-19 13:29S 33°52' E 151°11'0 0.0
2020-Mar-19 09:59S 33°52' E 151°11'0 0.0
2020-Mar-19 09:29S 33°52' E 151°11'0 0.0
2020-Mar-19 08:29S 33°52' E 151°11'3 0.1
2020-Mar-18 03:22S 33°52' E 151°15'0 0.1
2020-Mar-18 02:25S 33°52' E 151°15'0 0.0
2020-Mar-18 01:40S 33°52' E 151°15'0 0.0
2020-Mar-18 00:52S 33°52' E 151°15'0 0.0
2020-Mar-17 20:28S 33°52' E 151°15'0 0.0
2020-Mar-17 17:58S 33°52' E 151°15'0 0.0
2020-Mar-17 16:28S 33°52' E 151°15'0 0.0
2020-Mar-17 12:58S 33°52' E 151°15'0 0.0
2020-Mar-17 10:28S 33°52' E 151°15'0 0.0
2020-Mar-17 09:28S 33°52' E 151°15'0 0.0
2020-Mar-17 06:28S 33°52' E 151°15'0 0.0
2020-Mar-17 05:46S 33°52' E 151°15'9 2.0
2020-Mar-17 01:00S 33°49' E 151°26'2110.5
2020-Mar-16 23:00S 33°34' E 151°44'4512.8
2020-Mar-16 19:30S 33°04' E 152°24'2612.9
2020-Mar-16 17:30S 32°47' E 152°47'  
Track history (hours):
 
Tides and Currents Weather Stations Pressure Air Temp Water Temp Dewpoint Dewpoint Depression Visibility Wind Speed Wind Dir Waves Ship Positions

Christina O

Operator: V Ships Leisure SAM

Last reported at 2020-Mar-26 11:00 UTC. Time now 2020-Apr-02 21:50 UTC.
Position S 31°58' E 115°40'.

Length 186 m; draft 6.1 m.

Type: Passenger vessel. MMSI: 308322000.

Date/timePositionNaut miles runAvg speedWind from/ knotsBaromVisibWave heightAir tempDewpointWater temp
2020-Mar-26 11:00S 31°58' E 115°40'6 6.2
2020-Mar-26 09:59S 32°03' E 115°45'0 0.0
2020-Mar-26 09:29S 32°03' E 115°45'0 0.0
2020-Mar-26 07:59S 32°03' E 115°45'0 0.0
2020-Mar-26 07:29S 32°03' E 115°45'0 0.0
2020-Mar-26 06:59S 32°03' E 115°45'0 0.0
2020-Mar-26 06:29S 32°03' E 115°45'0 0.0
2020-Mar-26 05:59S 32°03' E 115°45'0 0.0
2020-Mar-26 05:29S 32°03' E 115°45'0 0.0
2020-Mar-26 04:29S 32°03' E 115°45'0 0.0
2020-Mar-26 03:29S 32°03' E 115°45'3 0.7
2020-Mar-25 23:00S 32°01' E 115°42'21 8.5
2020-Mar-25 20:30S 32°11' E 115°19'6613.2
2020-Mar-25 15:30S 33°13' E 114°54'2813.9
2020-Mar-25 13:30S 33°40' E 114°44'815.0
2020-Mar-25 13:00S 33°48' E 114°43'  
2020-Mar-20 09:00S 34°03' E 151°24'817.0
2020-Mar-20 08:30S 33°55' E 151°22'9 0.7
2020-Mar-19 19:59S 33°52' E 151°11'0 0.0
2020-Mar-19 19:25S 33°52' E 151°11'0 0.0
2020-Mar-19 18:29S 33°52' E 151°11'0 0.0
2020-Mar-19 16:29S 33°52' E 151°11'0 0.0
2020-Mar-19 14:29S 33°52' E 151°11'0 0.0
2020-Mar-19 13:59S 33°52' E 151°11'0 0.0
2020-Mar-19 13:29S 33°52' E 151°11'0 0.0
2020-Mar-19 09:59S 33°52' E 151°11'0 0.0
2020-Mar-19 09:29S 33°52' E 151°11'0 0.0
2020-Mar-19 08:29S 33°52' E 151°11'3 0.1
2020-Mar-18 03:22S 33°52' E 151°15'0 0.1
2020-Mar-18 02:25S 33°52' E 151°15'0 0.0
2020-Mar-18 01:40S 33°52' E 151°15'0 0.0
2020-Mar-18 00:52S 33°52' E 151°15'0 0.0
2020-Mar-17 20:28S 33°52' E 151°15'0 0.0
2020-Mar-17 17:58S 33°52' E 151°15'0 0.0
2020-Mar-17 16:28S 33°52' E 151°15'0 0.0
2020-Mar-17 12:58S 33°52' E 151°15'0 0.0
2020-Mar-17 10:28S 33°52' E 151°15'0 0.0
2020-Mar-17 09:28S 33°52' E 151°15'0 0.0
2020-Mar-17 06:28S 33°52' E 151°15'0 0.0
2020-Mar-17 05:46S 33°52' E 151°15'9 2.0
2020-Mar-17 01:00S 33°49' E 151°26'2110.5
2020-Mar-16 23:00S 33°34' E 151°44'4512.8
2020-Mar-16 19:30S 33°04' E 152°24'2612.9
2020-Mar-16 17:30S 32°47' E 152°47'  

Dump ship's entire track history